Dothan, Alabama
Current Conditions -  °F | °C
As of 3:53 PM on Friday 24 Oct 2014 (Local Time) from KDHN Reporting Station
Clear Clear  
Wind Chill: 76°   Ceiling: Unl
Heat Index: 76°   Visibility: 10mi
Dew Point: 42°   Wind: 6mph
Humidity: 30%   Direction: NA
Pressure: 30.02"   Gusts: NA
Location:  31.22°N, 85.39°W
Report Text: KDHN 242053Z VRB05KT 10SM CLR 24/06 A3002 RMK AO2 SLP161 T02440056 56012
Loading
Personal Weather Stations






























Interactive Weather Map
Tropical Storm Tracking
New forecast layout! Learn more

10-Day Weather Forecast

Advertisements
Track Severe Weather on mobile